Vh-npc — VH-NPC — position and weather

sailwx.info

Track history (hours):
 
Tides and Currents Weather Stations Pressure Air Temp Water Temp Dewpoint Dewpoint Depression Visibility Wind Speed Wind Dir Waves Ship Positions

Vh-npc

Last reported at 2017-Dec-15 10:03 UTC. Time now 2017-Dec-15 20:09 UTC.
Position S 32°55' E 151°46'.

Length 10 m.

Type: Pilot. MMSI: 111503020.

Date/timePositionNaut miles runAvg speedWind from/ knotsBaromVisibWave heightAir tempDewpointWater temp
2017-Dec-15 10:03S 32°55' E 151°46'248.5
2017-Dec-15 10:01S 32°55' E 151°49'2 3.9
2017-Dec-15 09:25S 32°55' E 151°46'0 0.1
2017-Dec-15 08:51S 32°55' E 151°46'0 0.0
2017-Dec-15 05:01S 32°55' E 151°46'073.8
2017-Dec-15 05:00S 32°54' E 151°46'1 0.6
2017-Dec-15 04:04S 32°55' E 151°47'340.7
2017-Dec-15 04:01S 32°56' E 151°49'7 4.4
2017-Dec-15 02:31S 33°03' E 151°48'8 0.8
2017-Dec-14 16:35S 32°55' E 151°47'452.0
2017-Dec-14 16:31S 32°56' E 151°51'0 0.1
2017-Dec-14 14:59S 32°56' E 151°51'4 2.0
2017-Dec-14 13:03S 32°55' E 151°46'245.6
2017-Dec-14 13:01S 32°55' E 151°49'2 1.4
2017-Dec-14 11:25S 32°55' E 151°46'2 5.0
2017-Dec-14 10:58S 32°56' E 151°49'2 2.1
2017-Dec-14 09:51S 32°55' E 151°46'0 0.6
2017-Dec-14 09:29S 32°55' E 151°46'0 0.0
2017-Dec-14 05:18S 32°55' E 151°46'0 0.3
2017-Dec-14 04:50S 32°55' E 151°46'0 0.1
2017-Dec-14 02:56S 32°55' E 151°46'3 6.0
2017-Dec-14 02:31S 32°57' E 151°48'2 0.7
2017-Dec-13 23:18S 32°55' E 151°47'0 0.1
2017-Dec-13 19:40S 32°55' E 151°46'210.7
2017-Dec-13 19:31S 32°56' E 151°48'2 0.2
2017-Dec-13 08:49S 32°55' E 151°46'0 0.6
2017-Dec-13 08:20S 32°55' E 151°46'1 2.5
2017-Dec-13 08:01S 32°54' E 151°46'1 1.2
2017-Dec-13 06:59S 32°55' E 151°46'0 0.0
2017-Dec-13 03:03S 32°55' E 151°46'242.5
2017-Dec-13 03:01S 32°55' E 151°48'2 0.7
2017-Dec-13 00:28S 32°55' E 151°46'0 0.1
2017-Dec-12 23:11S 32°55' E 151°46'0 1.9
2017-Dec-12 23:01S 32°55' E 151°46'0 0.1
2017-Dec-12 19:44S 32°55' E 151°46'211.5
2017-Dec-12 19:31S 32°57' E 151°48'3 1.1
2017-Dec-12 17:12S 32°55' E 151°46'630.8
2017-Dec-12 17:00S 32°58' E 151°52'6 1.5
2017-Dec-12 13:08S 32°55' E 151°46'423.6
2017-Dec-12 12:58S 32°58' E 151°50'2 4.5
2017-Dec-12 12:31S 32°59' E 151°51'6 6.3
2017-Dec-12 11:34S 32°55' E 151°46'349.2
2017-Dec-12 11:31S 32°55' E 151°50'3 0.5
2017-Dec-12 05:02S 32°55' E 151°46'166.6
2017-Dec-12 05:01S 32°54' E 151°46'1 0.3
2017-Dec-12 01:39S 32°55' E 151°46'638.7
2017-Dec-12 01:30S 32°59' E 151°52'6 6.3
2017-Dec-12 00:36S 32°55' E 151°46'540.2
2017-Dec-12 00:29S 32°58' E 151°51'5 4.3
2017-Dec-11 23:18S 32°55' E 151°46'0 0.0
2017-Dec-11 22:06S 32°55' E 151°46'559.9
2017-Dec-11 22:01S 32°58' E 151°52'5 3.2
2017-Dec-11 20:23S 32°55' E 151°46'0 0.0
2017-Dec-11 17:25S 32°55' E 151°46'0 0.3
2017-Dec-11 16:30S 32°55' E 151°46'0 0.1
2017-Dec-11 08:01S 32°55' E 151°46'168.4
2017-Dec-11 08:01S 32°55' E 151°46'1 0.6
2017-Dec-11 07:01S 32°55' E 151°46'169.1
2017-Dec-11 07:01S 32°55' E 151°46'0 0.1
2017-Dec-11 04:24S 32°55' E 151°46'0 0.1
2017-Dec-11 01:54S 32°55' E 151°46'512.2
2017-Dec-11 01:31S 32°58' E 151°50'5 6.1
2017-Dec-11 00:46S 32°55' E 151°46'727.0
2017-Dec-11 00:31S 32°55' E 151°38'  
Track history (hours):
 
Tides and Currents Weather Stations Pressure Air Temp Water Temp Dewpoint Dewpoint Depression Visibility Wind Speed Wind Dir Waves Ship Positions

Vh-npc

Last reported at 2017-Dec-15 10:03 UTC. Time now 2017-Dec-15 20:09 UTC.
Position S 32°55' E 151°46'.

Length 10 m.

Type: Pilot. MMSI: 111503020.

Date/timePositionNaut miles runAvg speedWind from/ knotsBaromVisibWave heightAir tempDewpointWater temp
2017-Dec-15 10:03S 32°55' E 151°46'248.5
2017-Dec-15 10:01S 32°55' E 151°49'2 3.9
2017-Dec-15 09:25S 32°55' E 151°46'0 0.1
2017-Dec-15 08:51S 32°55' E 151°46'0 0.0
2017-Dec-15 05:01S 32°55' E 151°46'073.8
2017-Dec-15 05:00S 32°54' E 151°46'1 0.6
2017-Dec-15 04:04S 32°55' E 151°47'340.7
2017-Dec-15 04:01S 32°56' E 151°49'7 4.4
2017-Dec-15 02:31S 33°03' E 151°48'8 0.8
2017-Dec-14 16:35S 32°55' E 151°47'452.0
2017-Dec-14 16:31S 32°56' E 151°51'0 0.1
2017-Dec-14 14:59S 32°56' E 151°51'4 2.0
2017-Dec-14 13:03S 32°55' E 151°46'245.6
2017-Dec-14 13:01S 32°55' E 151°49'2 1.4
2017-Dec-14 11:25S 32°55' E 151°46'2 5.0
2017-Dec-14 10:58S 32°56' E 151°49'2 2.1
2017-Dec-14 09:51S 32°55' E 151°46'0 0.6
2017-Dec-14 09:29S 32°55' E 151°46'0 0.0
2017-Dec-14 05:18S 32°55' E 151°46'0 0.3
2017-Dec-14 04:50S 32°55' E 151°46'0 0.1
2017-Dec-14 02:56S 32°55' E 151°46'3 6.0
2017-Dec-14 02:31S 32°57' E 151°48'2 0.7
2017-Dec-13 23:18S 32°55' E 151°47'0 0.1
2017-Dec-13 19:40S 32°55' E 151°46'210.7
2017-Dec-13 19:31S 32°56' E 151°48'2 0.2
2017-Dec-13 08:49S 32°55' E 151°46'0 0.6
2017-Dec-13 08:20S 32°55' E 151°46'1 2.5
2017-Dec-13 08:01S 32°54' E 151°46'1 1.2
2017-Dec-13 06:59S 32°55' E 151°46'0 0.0
2017-Dec-13 03:03S 32°55' E 151°46'242.5
2017-Dec-13 03:01S 32°55' E 151°48'2 0.7
2017-Dec-13 00:28S 32°55' E 151°46'0 0.1
2017-Dec-12 23:11S 32°55' E 151°46'0 1.9
2017-Dec-12 23:01S 32°55' E 151°46'0 0.1
2017-Dec-12 19:44S 32°55' E 151°46'211.5
2017-Dec-12 19:31S 32°57' E 151°48'3 1.1
2017-Dec-12 17:12S 32°55' E 151°46'630.8
2017-Dec-12 17:00S 32°58' E 151°52'6 1.5
2017-Dec-12 13:08S 32°55' E 151°46'423.6
2017-Dec-12 12:58S 32°58' E 151°50'2 4.5
2017-Dec-12 12:31S 32°59' E 151°51'6 6.3
2017-Dec-12 11:34S 32°55' E 151°46'349.2
2017-Dec-12 11:31S 32°55' E 151°50'3 0.5
2017-Dec-12 05:02S 32°55' E 151°46'166.6
2017-Dec-12 05:01S 32°54' E 151°46'1 0.3
2017-Dec-12 01:39S 32°55' E 151°46'638.7
2017-Dec-12 01:30S 32°59' E 151°52'6 6.3
2017-Dec-12 00:36S 32°55' E 151°46'540.2
2017-Dec-12 00:29S 32°58' E 151°51'5 4.3
2017-Dec-11 23:18S 32°55' E 151°46'0 0.0
2017-Dec-11 22:06S 32°55' E 151°46'559.9
2017-Dec-11 22:01S 32°58' E 151°52'5 3.2
2017-Dec-11 20:23S 32°55' E 151°46'0 0.0
2017-Dec-11 17:25S 32°55' E 151°46'0 0.3
2017-Dec-11 16:30S 32°55' E 151°46'0 0.1
2017-Dec-11 08:01S 32°55' E 151°46'168.4
2017-Dec-11 08:01S 32°55' E 151°46'1 0.6
2017-Dec-11 07:01S 32°55' E 151°46'169.1
2017-Dec-11 07:01S 32°55' E 151°46'0 0.1
2017-Dec-11 04:24S 32°55' E 151°46'0 0.1
2017-Dec-11 01:54S 32°55' E 151°46'512.2
2017-Dec-11 01:31S 32°58' E 151°50'5 6.1
2017-Dec-11 00:46S 32°55' E 151°46'727.0
2017-Dec-11 00:31S 32°55' E 151°38'  

Dump ship's entire track history